createdAt,value
2019-01-23T00:01:54.345Z,26.00
2019-01-23T00:04:23.103Z,25.77
2019-01-23T00:06:51.949Z,25.93
2019-01-23T00:09:20.674Z,24.53
2019-01-23T00:11:49.421Z,24.63
2019-01-23T00:14:18.136Z,24.50
2019-01-23T00:16:46.889Z,25.33
2019-01-23T00:19:15.614Z,24.13
2019-01-23T00:21:44.386Z,25.23
2019-01-23T00:24:13.111Z,23.73
2019-01-23T00:26:41.982Z,25.33
2019-01-23T00:29:11.038Z,24.43
2019-01-23T00:31:39.745Z,25.07
2019-01-23T00:34:08.470Z,24.60
2019-01-23T00:36:37.188Z,26.47
2019-01-23T00:39:07.473Z,25.60
2019-01-23T00:41:36.200Z,23.80
2019-01-23T00:44:05.034Z,25.47
2019-01-23T00:46:33.751Z,25.10
2019-01-23T00:49:02.452Z,25.60
2019-01-23T00:51:31.190Z,25.07
2019-01-23T00:53:59.901Z,24.53
2019-01-23T00:56:28.664Z,26.20
2019-01-23T00:58:57.365Z,25.17
2019-01-23T01:01:26.075Z,24.20
2019-01-23T01:03:54.760Z,25.07
2019-01-23T01:06:23.461Z,25.33
2019-01-23T01:08:52.199Z,25.43
2019-01-23T01:11:20.901Z,25.80
2019-01-23T01:13:49.624Z,25.13
2019-01-23T01:16:18.370Z,25.00
2019-01-23T01:18:47.107Z,24.53
2019-01-23T01:21:15.833Z,24.97
2019-01-23T01:23:44.525Z,25.10
2019-01-23T01:26:13.262Z,24.50
2019-01-23T01:28:41.970Z,25.30
2019-01-23T01:31:10.681Z,25.23
2019-01-23T01:33:39.433Z,25.53
2019-01-23T01:36:08.158Z,25.53
2019-01-23T01:38:36.854Z,24.50
2019-01-23T01:41:05.597Z,23.70
2019-01-23T01:43:34.332Z,25.53
2019-01-23T01:46:03.056Z,26.00
2019-01-23T01:48:31.783Z,24.77
2019-01-23T01:51:00.797Z,24.63
2019-01-23T01:53:29.508Z,25.33
2019-01-23T01:55:58.230Z,24.40
2019-01-23T01:58:26.947Z,25.60
2019-01-23T02:00:55.649Z,24.70
2019-01-23T02:03:24.354Z,24.20
2019-01-23T02:05:53.079Z,25.40
2019-01-23T02:08:21.802Z,24.77
2019-01-23T02:10:50.539Z,23.70
2019-01-23T02:13:19.250Z,24.87
2019-01-23T02:15:47.978Z,25.07
2019-01-23T02:18:16.705Z,24.70
2019-01-23T02:20:45.553Z,24.43
2019-01-23T02:23:14.258Z,25.07
2019-01-23T02:25:42.990Z,23.87
2019-01-23T02:28:11.913Z,24.37
2019-01-23T02:30:40.640Z,24.20
2019-01-23T02:33:09.350Z,25.83
2019-01-23T02:35:38.146Z,24.53
2019-01-23T02:38:06.858Z,24.07
2019-01-23T02:40:35.631Z,24.33
2019-01-23T02:43:04.328Z,24.10
2019-01-23T02:45:33.066Z,23.50
2019-01-23T02:48:01.774Z,25.00
2019-01-23T02:50:30.473Z,24.87
2019-01-23T02:52:59.169Z,25.17
2019-01-23T02:55:27.958Z,22.67
2019-01-23T02:57:56.970Z,22.77
2019-01-23T03:00:25.673Z,23.57
2019-01-23T03:02:54.430Z,24.50
2019-01-23T03:05:23.292Z,23.73
2019-01-23T03:07:52.126Z,23.03
2019-01-23T03:10:21.310Z,24.30
2019-01-23T03:12:50.045Z,22.87
2019-01-23T03:15:18.839Z,24.40
2019-01-23T03:17:47.547Z,23.97
2019-01-23T03:20:17.106Z,24.87
2019-01-23T03:22:45.879Z,23.80
2019-01-23T03:25:15.055Z,24.40
2019-01-23T03:27:43.817Z,24.10
2019-01-23T03:30:14.060Z,23.97
2019-01-23T03:32:42.786Z,23.77
2019-01-23T03:35:11.511Z,23.50
2019-01-23T03:37:40.204Z,24.07
2019-01-23T03:40:12.948Z,23.63
2019-01-23T03:42:41.730Z,24.63
2019-01-23T03:45:11.123Z,23.57
2019-01-23T03:47:40.441Z,23.03
2019-01-23T03:50:10.050Z,22.17
2019-01-23T03:52:38.768Z,22.03
2019-01-23T03:55:12.099Z,22.50
2019-01-23T03:57:38.493Z,23.40
2019-01-23T04:00:08.703Z,22.20
2019-01-23T04:02:37.450Z,22.43
2019-01-23T04:05:07.106Z,22.87
2019-01-23T04:07:35.813Z,22.00
2019-01-23T04:10:05.476Z,22.17
2019-01-23T04:12:34.163Z,22.17
2019-01-23T04:15:02.872Z,22.37
2019-01-23T04:17:31.569Z,22.90
2019-01-23T04:20:00.263Z,21.37
2019-01-23T04:22:29.009Z,22.03
2019-01-23T04:24:57.710Z,21.67
2019-01-23T04:27:26.445Z,21.97
2019-01-23T04:29:55.152Z,22.70
2019-01-23T04:32:23.860Z,22.37
2019-01-23T04:34:52.546Z,21.90
2019-01-23T04:37:21.267Z,21.87
2019-01-23T04:39:49.975Z,22.90
2019-01-23T04:42:18.665Z,21.47
2019-01-23T04:44:47.398Z,21.33
2019-01-23T04:47:16.123Z,21.77
2019-01-23T04:49:44.813Z,22.37
2019-01-23T04:52:23.959Z,21.63
2019-01-23T04:54:52.670Z,22.60
2019-01-23T04:57:21.383Z,22.33
2019-01-23T04:59:50.122Z,21.47
2019-01-23T05:02:18.805Z,22.70
2019-01-23T05:04:47.530Z,22.60
2019-01-23T05:07:16.234Z,23.00
2019-01-23T05:09:44.971Z,22.83
2019-01-23T05:12:13.669Z,21.27
2019-01-23T05:14:42.415Z,21.80
2019-01-23T05:17:11.163Z,22.67
2019-01-23T05:19:40.151Z,22.93
2019-01-23T05:22:08.843Z,21.07
2019-01-23T05:24:37.620Z,21.63
2019-01-23T05:27:06.618Z,22.43
2019-01-23T05:29:35.368Z,23.37
2019-01-23T05:32:04.078Z,22.90
2019-01-23T05:34:32.811Z,23.47
2019-01-23T05:37:01.533Z,22.77
2019-01-23T05:39:30.259Z,23.33
2019-01-23T05:41:58.955Z,23.03
2019-01-23T05:44:27.723Z,22.93
2019-01-23T05:46:56.426Z,23.67
2019-01-23T05:49:25.139Z,22.63
2019-01-23T05:51:53.882Z,23.60
2019-01-23T05:54:22.606Z,24.80
2019-01-23T05:56:51.372Z,23.90
2019-01-23T05:59:20.072Z,24.20
2019-01-23T06:01:48.820Z,23.83
2019-01-23T06:04:17.616Z,24.87
2019-01-23T06:06:46.342Z,24.63
2019-01-23T06:09:15.063Z,23.90
2019-01-23T06:11:43.786Z,25.37
2019-01-23T06:14:12.513Z,23.77
2019-01-23T06:16:41.247Z,24.37
2019-01-23T06:19:09.978Z,24.20
2019-01-23T06:21:38.704Z,26.23
2019-01-23T06:24:07.427Z,26.93
2019-01-23T06:26:36.151Z,25.77
2019-01-23T06:29:04.905Z,26.77
2019-01-23T06:31:33.673Z,24.77
2019-01-23T06:34:02.370Z,25.63
2019-01-23T06:36:31.151Z,26.10
2019-01-23T06:38:59.882Z,27.10
2019-01-23T06:41:28.599Z,25.73
2019-01-23T06:43:57.330Z,27.10
2019-01-23T06:46:26.048Z,27.20
2019-01-23T06:48:55.166Z,25.30
2019-01-23T06:51:23.938Z,25.93
2019-01-23T06:53:52.694Z,27.13
2019-01-23T06:56:21.466Z,25.60
2019-01-23T06:58:50.176Z,26.07
2019-01-23T07:01:18.918Z,25.33
2019-01-23T07:03:47.666Z,26.17
2019-01-23T07:06:16.394Z,25.70
2019-01-23T07:08:45.141Z,26.10
2019-01-23T07:11:13.865Z,25.83
2019-01-23T07:13:42.562Z,26.10
2019-01-23T07:16:11.362Z,26.33
2019-01-23T07:18:40.072Z,27.40
2019-01-23T07:21:08.792Z,25.17
2019-01-23T07:23:37.494Z,25.53
2019-01-23T07:26:06.222Z,25.40
2019-01-23T07:28:34.986Z,25.80
2019-01-23T07:31:03.723Z,25.17
2019-01-23T07:33:32.454Z,24.70
2019-01-23T07:36:01.242Z,25.93
2019-01-23T07:38:30.016Z,24.37
2019-01-23T07:40:58.746Z,25.20
2019-01-23T07:43:27.467Z,24.33
2019-01-23T07:45:56.199Z,25.00
2019-01-23T07:48:24.904Z,25.60
2019-01-23T07:50:53.615Z,25.53
2019-01-23T07:53:22.344Z,27.03
2019-01-23T07:55:51.085Z,27.40
2019-01-23T07:58:19.819Z,28.03
2019-01-23T08:00:48.575Z,26.27
2019-01-23T08:03:17.292Z,26.17
2019-01-23T08:05:46.143Z,26.73
2019-01-23T08:08:14.857Z,23.90
2019-01-23T08:10:43.573Z,25.53
2019-01-23T08:13:12.285Z,25.87
2019-01-23T08:15:41.090Z,27.67
2019-01-23T08:18:10.023Z,25.33
2019-01-23T08:20:38.742Z,26.03
2019-01-23T08:23:07.469Z,26.70
2019-01-23T08:25:36.198Z,25.43
2019-01-23T08:28:05.005Z,27.00
2019-01-23T08:30:38.690Z,26.03
2019-01-23T08:33:04.279Z,30.65
2019-01-23T08:35:33.043Z,27.70
2019-01-23T08:38:01.756Z,26.47
2019-01-23T08:40:30.469Z,25.73
2019-01-23T08:42:59.210Z,25.33
2019-01-23T08:45:27.983Z,25.80
2019-01-23T08:47:56.689Z,25.57
2019-01-23T08:50:30.110Z,25.00
2019-01-23T08:52:58.879Z,25.27
2019-01-23T08:55:27.571Z,25.27
2019-01-23T08:57:56.356Z,24.77
2019-01-23T09:00:25.076Z,24.13
2019-01-23T09:02:53.833Z,24.37
2019-01-23T09:05:22.546Z,25.73
2019-01-23T09:07:51.254Z,24.83
2019-01-23T09:10:20.702Z,24.83
2019-01-23T09:12:49.515Z,29.20
2019-01-23T09:15:18.253Z,24.97
2019-01-23T09:17:47.009Z,26.23
2019-01-23T09:20:16.177Z,25.63
2019-01-23T09:22:44.923Z,25.90
2019-01-23T09:25:14.763Z,26.47
2019-01-23T09:27:43.681Z,26.13
2019-01-23T09:30:14.299Z,25.33
2019-01-23T09:33:20.531Z,24.63
2019-01-23T09:36:11.439Z,24.83
2019-01-23T09:38:44.767Z,24.90
2019-01-23T09:41:23.134Z,25.37
2019-01-23T09:44:13.995Z,24.73
2019-01-23T09:46:59.238Z,24.83
2019-01-23T09:49:31.302Z,25.17
2019-01-23T09:52:19.142Z,24.37
2019-01-23T09:54:47.888Z,24.77
2019-01-23T09:57:16.706Z,24.10
2019-01-23T09:59:45.482Z,24.43
2019-01-23T10:02:14.274Z,23.63
2019-01-23T10:04:43.025Z,22.77
2019-01-23T10:07:11.756Z,22.80
2019-01-23T10:09:40.523Z,22.27
2019-01-23T10:12:09.266Z,23.80
2019-01-23T10:14:38.750Z,22.30
2019-01-23T10:17:07.887Z,22.77
2019-01-23T10:19:36.616Z,22.87
2019-01-23T10:22:05.362Z,22.70
2019-01-23T10:24:35.998Z,22.30
2019-01-23T10:27:04.764Z,22.73
2019-01-23T10:29:33.492Z,24.53
2019-01-23T10:32:02.307Z,22.53
2019-01-23T10:34:32.397Z,22.90
2019-01-23T10:37:01.338Z,27.57
2019-01-23T10:39:30.078Z,22.30
2019-01-23T10:41:58.833Z,23.60
2019-01-23T10:44:27.570Z,22.50
2019-01-23T10:46:56.277Z,21.80
2019-01-23T10:49:25.042Z,21.97
2019-01-23T10:51:53.803Z,21.40
2019-01-23T10:54:22.558Z,22.73
2019-01-23T10:56:51.321Z,22.03
2019-01-23T10:59:20.063Z,22.27
2019-01-23T11:01:48.844Z,20.63
2019-01-23T11:04:17.567Z,21.93
2019-01-23T11:06:46.284Z,21.93
2019-01-23T11:09:15.077Z,22.73
2019-01-23T11:11:43.904Z,22.40
2019-01-23T11:14:12.610Z,22.13
2019-01-23T11:16:41.339Z,21.87
2019-01-23T11:19:10.026Z,22.33
2019-01-23T11:21:38.818Z,22.63
2019-01-23T11:24:07.549Z,22.37
2019-01-23T11:26:36.316Z,21.70
2019-01-23T11:29:05.098Z,21.87
2019-01-23T11:31:33.839Z,22.47
2019-01-23T11:34:02.555Z,21.90
2019-01-23T11:36:31.317Z,23.33
2019-01-23T11:39:00.107Z,22.83
2019-01-23T11:41:28.904Z,21.87
2019-01-23T11:43:57.631Z,22.73
2019-01-23T11:46:26.512Z,25.35
2019-01-23T11:48:55.224Z,23.10
2019-01-23T11:51:23.983Z,22.03
2019-01-23T11:53:52.693Z,24.57
2019-01-23T11:56:21.419Z,21.90
2019-01-23T11:58:50.141Z,21.90
2019-01-23T12:01:18.867Z,23.10
2019-01-23T12:03:47.606Z,23.60
2019-01-23T12:06:16.339Z,22.97
2019-01-23T12:08:45.119Z,25.17
2019-01-23T12:11:13.857Z,23.50
2019-01-23T12:13:42.572Z,22.33
2019-01-23T12:16:11.282Z,23.83
2019-01-23T12:18:40.053Z,22.93
2019-01-23T12:21:08.776Z,23.03
2019-01-23T12:23:37.507Z,23.27
2019-01-23T12:26:06.240Z,23.23
2019-01-23T12:28:35.011Z,23.77
2019-01-23T12:31:03.792Z,23.57
2019-01-23T12:33:32.531Z,23.07
2019-01-23T12:36:01.269Z,22.63
2019-01-23T12:38:29.979Z,22.47
2019-01-23T12:40:58.734Z,22.10
2019-01-23T12:43:27.495Z,23.60
2019-01-23T12:45:56.256Z,23.63
2019-01-23T12:48:25.006Z,23.80
2019-01-23T12:51:14.711Z,22.43
2019-01-23T12:53:43.453Z,23.60
2019-01-23T12:56:12.161Z,23.30
2019-01-23T12:58:40.879Z,22.93
2019-01-23T13:01:09.615Z,21.43
2019-01-23T13:03:38.384Z,22.63
2019-01-23T13:06:07.400Z,23.90
2019-01-23T13:08:36.114Z,21.47
2019-01-23T13:11:04.802Z,22.80
2019-01-23T13:13:33.538Z,22.37
2019-01-23T13:16:02.362Z,21.80
2019-01-23T13:18:32.096Z,22.60
2019-01-23T13:21:01.006Z,23.47
2019-01-23T13:23:29.773Z,21.93
2019-01-23T13:25:58.568Z,23.50
2019-01-23T13:28:27.372Z,22.53
2019-01-23T13:30:56.136Z,22.03
2019-01-23T13:33:24.849Z,21.07
2019-01-23T13:35:53.577Z,22.47
2019-01-23T13:38:22.380Z,22.67
2019-01-23T13:40:51.116Z,21.33
2019-01-23T13:43:19.867Z,23.10
2019-01-23T13:45:48.563Z,22.00
2019-01-23T13:48:17.342Z,21.40
2019-01-23T13:50:46.076Z,22.40
2019-01-23T13:53:14.890Z,21.07
2019-01-23T13:55:43.665Z,21.47
2019-01-23T13:58:12.396Z,21.73
2019-01-23T14:00:41.894Z,21.93
2019-01-23T14:03:10.935Z,22.10
2019-01-23T14:05:39.750Z,21.47
2019-01-23T14:08:09.173Z,20.47
2019-01-23T14:10:37.882Z,22.07
2019-01-23T14:13:06.611Z,22.10
2019-01-23T14:15:36.080Z,22.37
2019-01-23T14:18:05.217Z,21.47
2019-01-23T14:20:34.019Z,22.53
2019-01-23T14:23:02.716Z,23.23
2019-01-23T14:25:31.475Z,24.23
2019-01-23T14:28:00.196Z,23.77
2019-01-23T14:30:30.162Z,21.63
2019-01-23T14:32:58.890Z,23.63
2019-01-23T14:35:27.973Z,23.33
2019-01-23T14:38:00.631Z,23.03
2019-01-23T14:40:27.267Z,23.73
2019-01-23T14:42:56.007Z,22.47
2019-01-23T14:45:24.739Z,23.50
2019-01-23T14:47:53.504Z,24.07
2019-01-23T14:50:22.423Z,21.83
2019-01-23T14:52:51.232Z,22.70
2019-01-23T14:55:20.070Z,23.60
2019-01-23T14:57:48.823Z,22.90
2019-01-23T15:00:18.891Z,23.60
2019-01-23T15:02:47.620Z,22.80
2019-01-23T15:05:16.842Z,22.23
2019-01-23T15:07:45.638Z,21.13
2019-01-23T15:10:15.882Z,19.13
2019-01-23T15:12:44.612Z,18.90
2019-01-23T15:15:14.737Z,21.00
2019-01-23T15:17:43.454Z,21.90
2019-01-23T15:20:14.329Z,20.90
2019-01-23T15:22:43.098Z,21.13
2019-01-23T15:25:35.945Z,21.00
2019-01-23T15:28:05.317Z,21.63
2019-01-23T15:30:34.222Z,20.20
2019-01-23T15:33:02.964Z,19.40
2019-01-23T15:35:31.726Z,19.43
2019-01-23T15:38:00.492Z,21.10
2019-01-23T15:40:30.419Z,19.80
2019-01-23T15:42:59.148Z,19.43
2019-01-23T15:45:28.052Z,18.67
2019-01-23T15:47:56.830Z,19.73
2019-01-23T15:50:25.546Z,19.03
2019-01-23T15:52:54.433Z,19.90
2019-01-23T15:55:23.639Z,19.50
2019-01-23T15:57:52.444Z,21.37
2019-01-23T16:00:25.172Z,21.50
2019-01-23T16:02:54.017Z,19.40
2019-01-23T16:05:22.762Z,20.70
2019-01-23T16:07:51.585Z,19.77
2019-01-23T16:10:21.054Z,20.93
2019-01-23T16:12:49.810Z,20.37
2019-01-23T16:15:19.296Z,19.10
2019-01-23T16:17:48.052Z,21.57
2019-01-23T16:20:16.858Z,20.13
2019-01-23T16:22:45.774Z,24.37
2019-01-23T16:25:14.788Z,21.63
2019-01-23T16:27:43.487Z,21.23
2019-01-23T16:30:15.163Z,21.73
2019-01-23T16:32:44.039Z,21.03
2019-01-23T16:35:12.911Z,20.03
2019-01-23T16:37:41.674Z,19.97
2019-01-23T16:40:10.502Z,19.53
2019-01-23T16:42:39.259Z,20.07
2019-01-23T16:45:08.564Z,20.20
2019-01-23T16:47:37.371Z,20.27
2019-01-23T16:50:08.406Z,19.83
2019-01-23T16:52:37.234Z,20.67
2019-01-23T16:55:06.542Z,20.37
2019-01-23T16:57:35.269Z,19.50
2019-01-23T17:00:05.911Z,20.07
2019-01-23T17:02:38.698Z,22.13
2019-01-23T17:05:07.484Z,20.60
2019-01-23T17:07:36.267Z,20.67
2019-01-23T17:10:05.925Z,20.47
2019-01-23T17:12:34.813Z,19.60
2019-01-23T17:15:03.870Z,20.70
2019-01-23T17:17:32.660Z,19.93
2019-01-23T17:20:01.533Z,19.87
2019-01-23T17:22:34.329Z,20.13
2019-01-23T17:25:03.079Z,20.67
2019-01-23T17:27:31.827Z,20.83
2019-01-23T17:30:00.573Z,19.73
2019-01-23T17:32:29.356Z,20.43
2019-01-23T17:34:59.330Z,19.90
2019-01-23T17:37:28.257Z,20.50
2019-01-23T17:39:57.031Z,20.17
2019-01-23T17:42:25.758Z,22.87
2019-01-23T17:44:54.641Z,21.50
2019-01-23T17:47:23.519Z,22.13
2019-01-23T17:49:52.697Z,20.50
2019-01-23T17:52:25.764Z,19.47
2019-01-23T17:54:54.868Z,21.23
2019-01-23T17:57:23.980Z,21.33
2019-01-23T17:59:52.828Z,20.83
2019-01-23T18:02:21.574Z,20.20
2019-01-23T18:04:50.476Z,20.43
2019-01-23T18:07:19.288Z,20.83
2019-01-23T18:09:48.172Z,20.03
2019-01-23T18:12:16.921Z,20.93
2019-01-23T18:14:49.178Z,19.10
2019-01-23T18:17:16.191Z,19.97
2019-01-23T18:19:45.275Z,21.20
2019-01-23T18:22:14.511Z,21.23
2019-01-23T18:24:43.358Z,20.87
2019-01-23T18:27:12.080Z,21.23
2019-01-23T18:29:40.873Z,21.40
2019-01-23T18:32:10.016Z,21.57
2019-01-23T18:34:53.419Z,22.87
2019-01-23T18:37:47.541Z,22.70
2019-01-23T18:40:44.424Z,22.53
2019-01-23T18:43:37.236Z,20.03
2019-01-23T18:46:24.043Z,22.17
2019-01-23T18:49:24.107Z,24.80
2019-01-23T18:52:02.855Z,22.20
2019-01-23T18:54:31.570Z,21.90
2019-01-23T18:57:00.347Z,22.03
2019-01-23T18:59:29.094Z,20.40
2019-01-23T19:01:57.889Z,20.40
2019-01-23T19:04:26.667Z,20.07
2019-01-23T19:06:55.481Z,20.33
2019-01-23T19:09:24.257Z,21.20
2019-01-23T19:11:53.060Z,21.10
2019-01-23T19:14:24.538Z,21.87
2019-01-23T19:16:52.291Z,20.00
2019-01-23T19:19:21.099Z,21.23
2019-01-23T19:21:55.066Z,21.00
2019-01-23T19:24:20.762Z,20.93
2019-01-23T19:26:52.957Z,21.27
2019-01-23T19:29:23.419Z,21.50
2019-01-23T19:31:52.432Z,20.77
2019-01-23T19:34:21.316Z,21.13
2019-01-23T19:36:50.273Z,21.87
2019-01-23T19:39:19.525Z,21.80
2019-01-23T19:41:48.354Z,22.00
2019-01-23T19:44:17.220Z,24.57
2019-01-23T19:46:45.966Z,22.40
2019-01-23T19:49:14.733Z,22.80
2019-01-23T19:51:43.590Z,22.33
2019-01-23T19:54:12.446Z,21.90
2019-01-23T19:56:41.210Z,21.03
2019-01-23T19:59:09.958Z,22.27
2019-01-23T20:01:38.743Z,20.40
2019-01-23T20:04:07.507Z,20.40
2019-01-23T20:06:36.304Z,20.93
2019-01-23T20:09:07.163Z,21.13
2019-01-23T20:11:35.938Z,19.37
2019-01-23T20:14:05.071Z,20.43
2019-01-23T20:16:33.818Z,19.63
2019-01-23T20:19:03.817Z,19.70
2019-01-23T20:21:32.540Z,19.83
2019-01-23T20:24:01.310Z,19.97
2019-01-23T20:26:30.469Z,20.33
2019-01-23T20:28:59.643Z,20.73
2019-01-23T20:31:28.946Z,20.80
2019-01-23T20:33:58.028Z,20.93
2019-01-23T20:36:26.866Z,20.00
2019-01-23T20:38:55.693Z,20.70
2019-01-23T20:41:24.490Z,20.07
2019-01-23T20:43:53.382Z,19.50
2019-01-23T20:46:22.272Z,19.93
2019-01-23T20:48:51.035Z,20.30
2019-01-23T20:51:19.856Z,20.00
2019-01-23T20:53:48.724Z,20.50
2019-01-23T20:56:17.834Z,19.20
2019-01-23T20:58:46.874Z,20.50
2019-01-23T21:01:15.722Z,19.90
2019-01-23T21:03:44.512Z,21.33
2019-01-23T21:06:13.363Z,21.37
2019-01-23T21:08:42.146Z,21.67
2019-01-23T21:11:11.702Z,21.23
2019-01-23T21:13:40.760Z,20.80
2019-01-23T21:16:09.604Z,20.20
2019-01-23T21:18:38.428Z,21.50
2019-01-23T21:21:07.172Z,21.70
2019-01-23T21:23:35.992Z,21.00
2019-01-23T21:26:04.852Z,20.30
2019-01-23T21:28:33.672Z,20.67
2019-01-23T21:31:02.474Z,20.83
2019-01-23T21:33:31.336Z,21.53
2019-01-23T21:36:00.274Z,21.47
2019-01-23T21:41:03.820Z,23.33
2019-01-23T21:43:32.598Z,21.83
2019-01-23T21:46:01.423Z,22.17
2019-01-23T21:48:30.200Z,20.67
2019-01-23T21:50:59.012Z,19.87
2019-01-23T21:53:27.803Z,22.10
2019-01-23T21:55:56.581Z,20.03
2019-01-23T21:58:25.323Z,21.57
2019-01-23T22:00:55.819Z,19.50
2019-01-23T22:03:24.576Z,21.23
2019-01-23T22:05:53.338Z,20.73
2019-01-23T22:08:22.090Z,21.17
2019-01-23T22:10:50.942Z,21.20
2019-01-23T22:13:19.713Z,21.63
2019-01-23T22:15:48.446Z,20.97
2019-01-23T22:18:17.211Z,21.77
2019-01-23T22:20:45.985Z,20.03
2019-01-23T22:23:14.778Z,21.40
2019-01-23T22:25:43.512Z,18.83
2019-01-23T22:28:12.241Z,20.87
2019-01-23T22:30:41.051Z,20.50
2019-01-23T22:33:09.789Z,20.80
2019-01-23T22:35:38.639Z,20.80
2019-01-23T22:38:07.486Z,21.00
2019-01-23T22:40:36.407Z,22.13
2019-01-23T22:43:05.399Z,20.30
2019-01-23T22:45:34.151Z,20.37
2019-01-23T22:48:02.905Z,20.23
2019-01-23T22:50:31.642Z,20.07
2019-01-23T22:53:00.447Z,21.47
2019-01-23T22:55:29.190Z,21.47
2019-01-23T22:57:57.934Z,21.23
2019-01-23T23:00:42.254Z,20.77
2019-01-23T23:03:12.146Z,20.53
2019-01-23T23:05:41.045Z,21.57
2019-01-23T23:08:09.876Z,22.00
2019-01-23T23:10:38.616Z,22.20
2019-01-23T23:13:07.346Z,22.20
2019-01-23T23:15:36.066Z,20.87
2019-01-23T23:18:05.169Z,21.07
2019-01-23T23:20:33.976Z,22.33
2019-01-23T23:23:02.675Z,22.53
2019-01-23T23:25:31.366Z,21.47
2019-01-23T23:28:00.110Z,21.90
2019-01-23T23:30:28.970Z,24.07
2019-01-23T23:32:57.735Z,21.83
2019-01-23T23:35:26.454Z,23.00
2019-01-23T23:37:55.158Z,23.13
2019-01-23T23:40:23.900Z,21.30
2019-01-23T23:42:52.589Z,22.47
2019-01-23T23:45:21.352Z,21.40
2019-01-23T23:47:50.030Z,23.77
2019-01-23T23:50:18.905Z,22.53
2019-01-23T23:52:47.895Z,22.43
2019-01-23T23:55:16.798Z,21.63
2019-01-23T23:57:45.582Z,23.23
